sensor_id;sensor_type;location;lat;lon;timestamp;P1;durP1;ratioP1;P2;durP2;ratioP2
25049;SDS011;13046;49.814;9.918;2023-09-07T00:01:10;11.00;;;5.90;;
25049;SDS011;13046;49.814;9.918;2023-09-07T00:03:36;6.13;;;5.63;;
25049;SDS011;13046;49.814;9.918;2023-09-07T00:06:06;6.28;;;5.68;;
25049;SDS011;13046;49.814;9.918;2023-09-07T00:08:32;8.98;;;6.10;;
25049;SDS011;13046;49.814;9.918;2023-09-07T00:11:08;5.82;;;5.32;;
25049;SDS011;13046;49.814;9.918;2023-09-07T00:13:35;7.32;;;6.63;;
25049;SDS011;13046;49.814;9.918;2023-09-07T00:16:04;7.80;;;5.85;;
25049;SDS011;13046;49.814;9.918;2023-09-07T00:18:31;7.70;;;5.82;;
25049;SDS011;13046;49.814;9.918;2023-09-07T00:20:58;6.30;;;5.75;;
25049;SDS011;13046;49.814;9.918;2023-09-07T00:23:24;7.10;;;5.50;;
25049;SDS011;13046;49.814;9.918;2023-09-07T00:25:50;7.78;;;7.05;;
25049;SDS011;13046;49.814;9.918;2023-09-07T00:28:17;6.45;;;5.85;;
25049;SDS011;13046;49.814;9.918;2023-09-07T00:30:43;6.63;;;6.03;;
25049;SDS011;13046;49.814;9.918;2023-09-07T00:33:09;7.22;;;6.22;;
25049;SDS011;13046;49.814;9.918;2023-09-07T00:35:35;6.13;;;5.53;;
25049;SDS011;13046;49.814;9.918;2023-09-07T00:38:02;6.40;;;5.82;;
25049;SDS011;13046;49.814;9.918;2023-09-07T00:40:28;6.72;;;6.13;;
25049;SDS011;13046;49.814;9.918;2023-09-07T00:42:54;7.18;;;6.05;;
25049;SDS011;13046;49.814;9.918;2023-09-07T00:45:20;9.43;;;6.35;;
25049;SDS011;13046;49.814;9.918;2023-09-07T00:47:47;6.00;;;5.40;;
25049;SDS011;13046;49.814;9.918;2023-09-07T00:50:13;7.35;;;6.68;;
25049;SDS011;13046;49.814;9.918;2023-09-07T00:52:44;7.85;;;7.13;;
25049;SDS011;13046;49.814;9.918;2023-09-07T00:55:11;7.32;;;5.55;;
25049;SDS011;13046;49.814;9.918;2023-09-07T00:57:38;5.93;;;5.38;;
25049;SDS011;13046;49.814;9.918;2023-09-07T01:00:05;7.80;;;6.43;;
25049;SDS011;13046;49.814;9.918;2023-09-07T01:02:33;7.72;;;6.88;;
25049;SDS011;13046;49.814;9.918;2023-09-07T01:04:59;8.48;;;5.85;;
25049;SDS011;13046;49.814;9.918;2023-09-07T01:07:32;10.32;;;6.38;;
25049;SDS011;13046;49.814;9.918;2023-09-07T01:10:00;8.52;;;6.45;;
25049;SDS011;13046;49.814;9.918;2023-09-07T01:12:28;6.90;;;6.20;;
25049;SDS011;13046;49.814;9.918;2023-09-07T01:14:54;7.05;;;6.03;;
25049;SDS011;13046;49.814;9.918;2023-09-07T01:17:20;8.65;;;6.25;;
25049;SDS011;13046;49.814;9.918;2023-09-07T01:19:48;8.90;;;7.55;;
25049;SDS011;13046;49.814;9.918;2023-09-07T01:22:17;6.95;;;6.35;;
25049;SDS011;13046;49.814;9.918;2023-09-07T01:24:45;6.22;;;5.63;;
25049;SDS011;13046;49.814;9.918;2023-09-07T01:27:11;6.68;;;5.95;;
25049;SDS011;13046;49.814;9.918;2023-09-07T01:29:38;7.30;;;6.47;;
25049;SDS011;13046;49.814;9.918;2023-09-07T01:32:05;7.18;;;6.47;;
25049;SDS011;13046;49.814;9.918;2023-09-07T01:34:31;8.93;;;5.88;;
25049;SDS011;13046;49.814;9.918;2023-09-07T01:36:57;6.68;;;6.05;;
25049;SDS011;13046;49.814;9.918;2023-09-07T01:39:23;7.40;;;6.68;;
25049;SDS011;13046;49.814;9.918;2023-09-07T01:41:49;21.10;;;7.22;;
25049;SDS011;13046;49.814;9.918;2023-09-07T01:44:15;7.75;;;5.90;;
25049;SDS011;13046;49.814;9.918;2023-09-07T01:46:41;7.85;;;6.22;;
25049;SDS011;13046;49.814;9.918;2023-09-07T01:49:07;8.30;;;6.30;;
25049;SDS011;13046;49.814;9.918;2023-09-07T01:51:35;8.02;;;7.22;;
25049;SDS011;13046;49.814;9.918;2023-09-07T01:54:01;7.05;;;6.38;;
25049;SDS011;13046;49.814;9.918;2023-09-07T01:56:28;7.88;;;7.15;;
25049;SDS011;13046;49.814;9.918;2023-09-07T01:58:54;8.48;;;6.40;;
25049;SDS011;13046;49.814;9.918;2023-09-07T02:01:24;8.25;;;6.28;;
25049;SDS011;13046;49.814;9.918;2023-09-07T02:03:50;7.07;;;6.35;;
25049;SDS011;13046;49.814;9.918;2023-09-07T02:06:16;8.10;;;6.63;;
25049;SDS011;13046;49.814;9.918;2023-09-07T02:08:43;13.35;;;8.73;;
25049;SDS011;13046;49.814;9.918;2023-09-07T02:11:09;8.13;;;7.40;;
25049;SDS011;13046;49.814;9.918;2023-09-07T02:13:37;9.25;;;6.53;;
25049;SDS011;13046;49.814;9.918;2023-09-07T02:16:04;7.57;;;6.95;;
25049;SDS011;13046;49.814;9.918;2023-09-07T02:18:33;8.93;;;6.88;;
25049;SDS011;13046;49.814;9.918;2023-09-07T02:21:03;7.65;;;6.85;;
25049;SDS011;13046;49.814;9.918;2023-09-07T02:23:29;7.88;;;7.05;;
25049;SDS011;13046;49.814;9.918;2023-09-07T02:25:56;8.13;;;6.53;;
25049;SDS011;13046;49.814;9.918;2023-09-07T02:28:22;7.25;;;6.45;;
25049;SDS011;13046;49.814;9.918;2023-09-07T02:30:49;9.05;;;6.25;;
25049;SDS011;13046;49.814;9.918;2023-09-07T02:33:15;7.07;;;6.40;;
25049;SDS011;13046;49.814;9.918;2023-09-07T02:35:41;8.40;;;7.47;;
25049;SDS011;13046;49.814;9.918;2023-09-07T02:38:07;8.30;;;6.80;;
25049;SDS011;13046;49.814;9.918;2023-09-07T02:40:38;9.25;;;8.32;;
25049;SDS011;13046;49.814;9.918;2023-09-07T02:43:05;8.25;;;7.45;;
25049;SDS011;13046;49.814;9.918;2023-09-07T02:45:31;8.90;;;8.20;;
25049;SDS011;13046;49.814;9.918;2023-09-07T02:47:57;7.55;;;6.85;;
25049;SDS011;13046;49.814;9.918;2023-09-07T02:50:23;7.82;;;7.13;;
25049;SDS011;13046;49.814;9.918;2023-09-07T02:52:49;8.43;;;6.95;;
25049;SDS011;13046;49.814;9.918;2023-09-07T02:55:15;8.43;;;7.20;;
25049;SDS011;13046;49.814;9.918;2023-09-07T02:57:42;8.63;;;7.82;;
25049;SDS011;13046;49.814;9.918;2023-09-07T03:00:08;7.63;;;6.97;;
25049;SDS011;13046;49.814;9.918;2023-09-07T03:02:36;8.05;;;6.88;;
25049;SDS011;13046;49.814;9.918;2023-09-07T03:05:02;6.60;;;5.78;;
25049;SDS011;13046;49.814;9.918;2023-09-07T03:07:32;7.65;;;6.95;;
25049;SDS011;13046;49.814;9.918;2023-09-07T03:09:59;12.98;;;7.70;;
25049;SDS011;13046;49.814;9.918;2023-09-07T03:12:26;7.38;;;6.78;;
25049;SDS011;13046;49.814;9.918;2023-09-07T03:14:52;10.55;;;7.45;;
25049;SDS011;13046;49.814;9.918;2023-09-07T03:17:19;8.10;;;6.25;;
25049;SDS011;13046;49.814;9.918;2023-09-07T03:19:46;7.95;;;7.18;;
25049;SDS011;13046;49.814;9.918;2023-09-07T03:22:13;6.97;;;6.38;;
25049;SDS011;13046;49.814;9.918;2023-09-07T03:24:39;8.85;;;7.97;;
25049;SDS011;13046;49.814;9.918;2023-09-07T03:27:06;8.15;;;7.32;;
25049;SDS011;13046;49.814;9.918;2023-09-07T03:29:32;8.05;;;7.25;;
25049;SDS011;13046;49.814;9.918;2023-09-07T03:31:59;8.65;;;7.32;;
25049;SDS011;13046;49.814;9.918;2023-09-07T03:34:25;7.60;;;6.80;;
25049;SDS011;13046;49.814;9.918;2023-09-07T03:36:52;8.85;;;7.82;;
25049;SDS011;13046;49.814;9.918;2023-09-07T03:39:18;10.05;;;8.23;;
25049;SDS011;13046;49.814;9.918;2023-09-07T03:41:44;8.23;;;7.47;;
25049;SDS011;13046;49.814;9.918;2023-09-07T03:44:10;9.63;;;7.75;;
25049;SDS011;13046;49.814;9.918;2023-09-07T03:46:36;7.95;;;7.25;;
25049;SDS011;13046;49.814;9.918;2023-09-07T03:49:03;8.52;;;7.25;;
25049;SDS011;13046;49.814;9.918;2023-09-07T03:51:29;8.38;;;7.63;;
25049;SDS011;13046;49.814;9.918;2023-09-07T03:53:55;8.75;;;7.85;;
25049;SDS011;13046;49.814;9.918;2023-09-07T03:56:21;7.97;;;7.28;;
25049;SDS011;13046;49.814;9.918;2023-09-07T03:58:47;12.07;;;7.55;;
25049;SDS011;13046;49.814;9.918;2023-09-07T04:01:13;8.27;;;7.25;;
25049;SDS011;13046;49.814;9.918;2023-09-07T04:03:39;8.55;;;7.75;;
25049;SDS011;13046;49.814;9.918;2023-09-07T04:06:07;10.27;;;8.15;;
25049;SDS011;13046;49.814;9.918;2023-09-07T04:08:33;10.27;;;7.68;;
25049;SDS011;13046;49.814;9.918;2023-09-07T04:11:04;8.38;;;7.57;;
25049;SDS011;13046;49.814;9.918;2023-09-07T04:13:30;8.30;;;7.60;;
25049;SDS011;13046;49.814;9.918;2023-09-07T04:15:56;8.55;;;7.72;;
25049;SDS011;13046;49.814;9.918;2023-09-07T04:18:23;7.35;;;6.68;;
25049;SDS011;13046;49.814;9.918;2023-09-07T04:20:49;9.25;;;7.30;;
25049;SDS011;13046;49.814;9.918;2023-09-07T04:23:15;15.00;;;13.10;;
25049;SDS011;13046;49.814;9.918;2023-09-07T04:25:42;11.50;;;10.40;;
25049;SDS011;13046;49.814;9.918;2023-09-07T04:28:11;9.73;;;8.43;;
25049;SDS011;13046;49.814;9.918;2023-09-07T04:30:41;9.00;;;7.93;;
25049;SDS011;13046;49.814;9.918;2023-09-07T04:33:07;9.15;;;7.75;;
25049;SDS011;13046;49.814;9.918;2023-09-07T04:35:35;10.20;;;9.20;;
25049;SDS011;13046;49.814;9.918;2023-09-07T04:38:01;9.60;;;8.05;;
25049;SDS011;13046;49.814;9.918;2023-09-07T04:40:28;9.18;;;7.68;;
25049;SDS011;13046;49.814;9.918;2023-09-07T04:42:54;8.90;;;8.07;;
25049;SDS011;13046;49.814;9.918;2023-09-07T04:45:20;8.05;;;7.35;;
25049;SDS011;13046;49.814;9.918;2023-09-07T04:47:46;9.98;;;8.88;;
25049;SDS011;13046;49.814;9.918;2023-09-07T04:50:12;8.30;;;7.45;;
25049;SDS011;13046;49.814;9.918;2023-09-07T04:52:39;8.13;;;7.43;;
25049;SDS011;13046;49.814;9.918;2023-09-07T04:55:05;9.23;;;8.32;;
25049;SDS011;13046;49.814;9.918;2023-09-07T04:57:33;9.90;;;8.90;;
25049;SDS011;13046;49.814;9.918;2023-09-07T04:59:59;9.55;;;8.15;;
25049;SDS011;13046;49.814;9.918;2023-09-07T05:02:25;12.43;;;8.40;;
25049;SDS011;13046;49.814;9.918;2023-09-07T05:04:51;9.30;;;8.02;;
25049;SDS011;13046;49.814;9.918;2023-09-07T05:07:17;10.48;;;8.13;;
25049;SDS011;13046;49.814;9.918;2023-09-07T05:09:43;12.60;;;8.23;;
25049;SDS011;13046;49.814;9.918;2023-09-07T05:12:09;9.82;;;8.75;;
25049;SDS011;13046;49.814;9.918;2023-09-07T05:14:36;9.65;;;8.75;;
25049;SDS011;13046;49.814;9.918;2023-09-07T05:17:02;9.38;;;8.50;;
25049;SDS011;13046;49.814;9.918;2023-09-07T05:19:28;12.82;;;8.50;;
25049;SDS011;13046;49.814;9.918;2023-09-07T05:21:54;9.30;;;8.40;;
25049;SDS011;13046;49.814;9.918;2023-09-07T05:24:20;10.20;;;8.43;;
25049;SDS011;13046;49.814;9.918;2023-09-07T05:26:46;8.88;;;7.95;;
25049;SDS011;13046;49.814;9.918;2023-09-07T05:29:12;9.38;;;8.57;;
25049;SDS011;13046;49.814;9.918;2023-09-07T05:31:39;8.50;;;7.63;;
25049;SDS011;13046;49.814;9.918;2023-09-07T05:34:05;9.43;;;8.50;;
25049;SDS011;13046;49.814;9.918;2023-09-07T05:36:32;9.07;;;8.18;;
25049;SDS011;13046;49.814;9.918;2023-09-07T05:38:58;8.68;;;7.90;;
25049;SDS011;13046;49.814;9.918;2023-09-07T05:41:27;10.10;;;9.07;;
25049;SDS011;13046;49.814;9.918;2023-09-07T05:43:53;10.48;;;9.57;;
25049;SDS011;13046;49.814;9.918;2023-09-07T05:46:19;9.63;;;8.77;;
25049;SDS011;13046;49.814;9.918;2023-09-07T05:48:45;9.65;;;8.68;;
25049;SDS011;13046;49.814;9.918;2023-09-07T05:51:11;10.35;;;9.32;;
25049;SDS011;13046;49.814;9.918;2023-09-07T05:53:38;9.95;;;9.00;;
25049;SDS011;13046;49.814;9.918;2023-09-07T05:56:04;9.50;;;8.65;;
25049;SDS011;13046;49.814;9.918;2023-09-07T05:58:30;10.00;;;9.00;;
25049;SDS011;13046;49.814;9.918;2023-09-07T06:00:57;11.30;;;9.45;;
25049;SDS011;13046;49.814;9.918;2023-09-07T06:03:23;9.75;;;8.82;;
25049;SDS011;13046;49.814;9.918;2023-09-07T06:05:49;11.65;;;10.52;;
25049;SDS011;13046;49.814;9.918;2023-09-07T06:08:16;10.93;;;9.88;;
25049;SDS011;13046;49.814;9.918;2023-09-07T06:10:42;10.07;;;8.57;;
25049;SDS011;13046;49.814;9.918;2023-09-07T06:13:08;11.55;;;8.70;;
25049;SDS011;13046;49.814;9.918;2023-09-07T06:15:34;12.38;;;9.13;;
25049;SDS011;13046;49.814;9.918;2023-09-07T06:18:00;10.35;;;9.35;;
25049;SDS011;13046;49.814;9.918;2023-09-07T06:20:26;11.10;;;9.93;;
25049;SDS011;13046;49.814;9.918;2023-09-07T06:22:54;12.02;;;9.48;;
25049;SDS011;13046;49.814;9.918;2023-09-07T06:25:20;13.52;;;9.20;;
25049;SDS011;13046;49.814;9.918;2023-09-07T06:27:47;10.93;;;9.85;;
25049;SDS011;13046;49.814;9.918;2023-09-07T06:30:14;16.73;;;11.00;;
25049;SDS011;13046;49.814;9.918;2023-09-07T06:32:40;10.60;;;9.55;;
25049;SDS011;13046;49.814;9.918;2023-09-07T06:35:08;14.65;;;10.98;;
25049;SDS011;13046;49.814;9.918;2023-09-07T06:37:36;13.98;;;10.52;;
25049;SDS011;13046;49.814;9.918;2023-09-07T06:40:05;13.23;;;10.20;;
25049;SDS011;13046;49.814;9.918;2023-09-07T06:42:32;13.27;;;11.43;;
25049;SDS011;13046;49.814;9.918;2023-09-07T06:45:04;12.15;;;11.07;;
25049;SDS011;13046;49.814;9.918;2023-09-07T06:47:31;13.88;;;12.10;;
25049;SDS011;13046;49.814;9.918;2023-09-07T06:50:01;12.63;;;11.38;;
25049;SDS011;13046;49.814;9.918;2023-09-07T06:52:28;14.93;;;10.85;;
25049;SDS011;13046;49.814;9.918;2023-09-07T06:54:54;21.38;;;15.93;;
25049;SDS011;13046;49.814;9.918;2023-09-07T06:57:20;15.82;;;12.65;;
25049;SDS011;13046;49.814;9.918;2023-09-07T06:59:46;14.15;;;12.57;;
25049;SDS011;13046;49.814;9.918;2023-09-07T07:02:14;12.10;;;10.77;;
25049;SDS011;13046;49.814;9.918;2023-09-07T07:04:40;15.65;;;11.82;;
25049;SDS011;13046;49.814;9.918;2023-09-07T07:07:06;10.60;;;9.60;;
25049;SDS011;13046;49.814;9.918;2023-09-07T07:09:33;11.23;;;8.82;;
25049;SDS011;13046;49.814;9.918;2023-09-07T07:11:59;10.48;;;9.48;;
25049;SDS011;13046;49.814;9.918;2023-09-07T07:14:28;10.88;;;9.80;;
25049;SDS011;13046;49.814;9.918;2023-09-07T07:16:54;12.10;;;9.95;;
25049;SDS011;13046;49.814;9.918;2023-09-07T07:19:21;13.95;;;10.20;;
25049;SDS011;13046;49.814;9.918;2023-09-07T07:21:48;13.98;;;9.85;;
25049;SDS011;13046;49.814;9.918;2023-09-07T07:24:14;14.20;;;10.40;;
25049;SDS011;13046;49.814;9.918;2023-09-07T07:26:40;12.30;;;10.27;;
25049;SDS011;13046;49.814;9.918;2023-09-07T07:29:06;12.52;;;9.88;;
25049;SDS011;13046;49.814;9.918;2023-09-07T07:31:34;16.98;;;9.77;;
25049;SDS011;13046;49.814;9.918;2023-09-07T07:34:00;15.98;;;9.35;;
25049;SDS011;13046;49.814;9.918;2023-09-07T07:36:26;12.82;;;9.48;;
25049;SDS011;13046;49.814;9.918;2023-09-07T07:38:52;10.93;;;9.90;;
25049;SDS011;13046;49.814;9.918;2023-09-07T07:41:20;13.45;;;9.68;;
25049;SDS011;13046;49.814;9.918;2023-09-07T07:43:46;9.85;;;8.45;;
25049;SDS011;13046;49.814;9.918;2023-09-07T07:46:12;10.25;;;8.73;;
25049;SDS011;13046;49.814;9.918;2023-09-07T07:48:41;10.07;;;9.00;;
25049;SDS011;13046;49.814;9.918;2023-09-07T07:51:07;9.38;;;8.57;;
25049;SDS011;13046;49.814;9.918;2023-09-07T07:53:34;8.77;;;7.82;;
25049;SDS011;13046;49.814;9.918;2023-09-07T07:56:00;9.18;;;8.27;;
25049;SDS011;13046;49.814;9.918;2023-09-07T07:58:28;9.63;;;8.65;;
25049;SDS011;13046;49.814;9.918;2023-09-07T08:00:54;10.20;;;8.05;;
25049;SDS011;13046;49.814;9.918;2023-09-07T08:03:25;10.10;;;9.07;;
25049;SDS011;13046;49.814;9.918;2023-09-07T08:05:52;11.20;;;7.97;;
25049;SDS011;13046;49.814;9.918;2023-09-07T08:08:18;9.45;;;8.32;;
25049;SDS011;13046;49.814;9.918;2023-09-07T08:10:44;9.93;;;8.98;;
25049;SDS011;13046;49.814;9.918;2023-09-07T08:13:11;8.13;;;7.32;;
25049;SDS011;13046;49.814;9.918;2023-09-07T08:15:38;7.90;;;7.10;;
25049;SDS011;13046;49.814;9.918;2023-09-07T08:18:05;7.53;;;6.78;;
25049;SDS011;13046;49.814;9.918;2023-09-07T08:20:33;8.15;;;7.35;;
25049;SDS011;13046;49.814;9.918;2023-09-07T08:23:00;7.68;;;6.95;;
25049;SDS011;13046;49.814;9.918;2023-09-07T08:25:28;9.38;;;6.70;;
25049;SDS011;13046;49.814;9.918;2023-09-07T08:27:55;8.30;;;7.53;;
25049;SDS011;13046;49.814;9.918;2023-09-07T08:30:24;8.32;;;7.22;;
25049;SDS011;13046;49.814;9.918;2023-09-07T08:32:51;8.93;;;6.60;;
25049;SDS011;13046;49.814;9.918;2023-09-07T08:35:17;7.07;;;6.43;;
25049;SDS011;13046;49.814;9.918;2023-09-07T08:37:43;8.82;;;6.30;;
25049;SDS011;13046;49.814;9.918;2023-09-07T08:40:09;7.97;;;7.20;;
25049;SDS011;13046;49.814;9.918;2023-09-07T08:42:36;6.90;;;6.35;;
25049;SDS011;13046;49.814;9.918;2023-09-07T08:45:03;9.50;;;7.15;;
25049;SDS011;13046;49.814;9.918;2023-09-07T08:47:33;7.25;;;5.97;;
25049;SDS011;13046;49.814;9.918;2023-09-07T08:50:00;9.20;;;6.80;;
25049;SDS011;13046;49.814;9.918;2023-09-07T08:52:27;8.60;;;6.90;;
25049;SDS011;13046;49.814;9.918;2023-09-07T08:54:53;6.60;;;5.93;;
25049;SDS011;13046;49.814;9.918;2023-09-07T08:57:19;8.35;;;6.38;;
25049;SDS011;13046;49.814;9.918;2023-09-07T08:59:47;6.85;;;6.15;;
25049;SDS011;13046;49.814;9.918;2023-09-07T09:02:14;7.05;;;6.47;;
25049;SDS011;13046;49.814;9.918;2023-09-07T09:04:41;6.82;;;6.32;;
25049;SDS011;13046;49.814;9.918;2023-09-07T09:07:07;6.50;;;5.90;;
25049;SDS011;13046;49.814;9.918;2023-09-07T09:09:34;6.82;;;6.32;;
25049;SDS011;13046;49.814;9.918;2023-09-07T09:12:07;7.15;;;6.55;;
25049;SDS011;13046;49.814;9.918;2023-09-07T09:14:33;8.63;;;6.18;;
25049;SDS011;13046;49.814;9.918;2023-09-07T09:16:59;6.70;;;6.05;;
25049;SDS011;13046;49.814;9.918;2023-09-07T09:19:32;6.70;;;6.05;;
25049;SDS011;13046;49.814;9.918;2023-09-07T09:22:00;7.20;;;6.30;;
25049;SDS011;13046;49.814;9.918;2023-09-07T09:24:26;7.00;;;5.93;;
25049;SDS011;13046;49.814;9.918;2023-09-07T09:26:52;7.97;;;7.28;;
25049;SDS011;13046;49.814;9.918;2023-09-07T09:29:22;8.88;;;6.45;;
25049;SDS011;13046;49.814;9.918;2023-09-07T09:31:48;11.27;;;6.32;;
25049;SDS011;13046;49.814;9.918;2023-09-07T09:34:14;7.28;;;6.30;;
25049;SDS011;13046;49.814;9.918;2023-09-07T09:36:41;7.22;;;6.40;;
25049;SDS011;13046;49.814;9.918;2023-09-07T09:39:08;8.32;;;6.45;;
25049;SDS011;13046;49.814;9.918;2023-09-07T09:41:34;7.38;;;6.47;;
25049;SDS011;13046;49.814;9.918;2023-09-07T09:44:04;8.48;;;6.47;;
25049;SDS011;13046;49.814;9.918;2023-09-07T09:46:31;11.10;;;7.70;;
25049;SDS011;13046;49.814;9.918;2023-09-07T09:48:57;6.72;;;6.15;;
25049;SDS011;13046;49.814;9.918;2023-09-07T09:51:23;6.90;;;6.10;;
25049;SDS011;13046;49.814;9.918;2023-09-07T09:53:50;8.35;;;6.43;;
25049;SDS011;13046;49.814;9.918;2023-09-07T09:56:17;6.05;;;5.38;;
25049;SDS011;13046;49.814;9.918;2023-09-07T09:58:45;9.77;;;6.20;;
25049;SDS011;13046;49.814;9.918;2023-09-07T10:01:11;8.35;;;6.05;;
25049;SDS011;13046;49.814;9.918;2023-09-07T10:03:43;7.05;;;5.65;;
25049;SDS011;13046;49.814;9.918;2023-09-07T10:06:28;5.88;;;5.30;;
25049;SDS011;13046;49.814;9.918;2023-09-07T10:08:58;6.75;;;5.43;;
25049;SDS011;13046;49.814;9.918;2023-09-07T10:11:31;6.60;;;5.32;;
25049;SDS011;13046;49.814;9.918;2023-09-07T10:13:58;6.03;;;5.53;;
25049;SDS011;13046;49.814;9.918;2023-09-07T10:16:24;8.63;;;5.88;;
25049;SDS011;13046;49.814;9.918;2023-09-07T10:18:52;6.97;;;5.18;;
25049;SDS011;13046;49.814;9.918;2023-09-07T10:21:19;8.30;;;5.47;;
25049;SDS011;13046;49.814;9.918;2023-09-07T10:23:46;7.07;;;6.32;;
25049;SDS011;13046;49.814;9.918;2023-09-07T10:26:15;6.82;;;5.95;;
25049;SDS011;13046;49.814;9.918;2023-09-07T10:28:45;7.88;;;5.82;;
25049;SDS011;13046;49.814;9.918;2023-09-07T10:31:18;10.90;;;6.15;;
25049;SDS011;13046;49.814;9.918;2023-09-07T10:33:44;7.00;;;5.50;;
25049;SDS011;13046;49.814;9.918;2023-09-07T10:36:26;7.40;;;6.15;;
25049;SDS011;13046;49.814;9.918;2023-09-07T10:38:53;6.47;;;5.75;;
25049;SDS011;13046;49.814;9.918;2023-09-07T10:41:20;6.25;;;5.65;;
25049;SDS011;13046;49.814;9.918;2023-09-07T10:43:47;6.65;;;5.30;;
25049;SDS011;13046;49.814;9.918;2023-09-07T10:46:13;5.55;;;5.05;;
25049;SDS011;13046;49.814;9.918;2023-09-07T10:48:39;5.30;;;4.80;;
25049;SDS011;13046;49.814;9.918;2023-09-07T10:51:05;6.95;;;5.28;;
25049;SDS011;13046;49.814;9.918;2023-09-07T10:53:32;23.83;;;6.28;;
25049;SDS011;13046;49.814;9.918;2023-09-07T10:55:58;7.55;;;5.82;;
25049;SDS011;13046;49.814;9.918;2023-09-07T10:58:26;6.00;;;5.38;;
25049;SDS011;13046;49.814;9.918;2023-09-07T11:00:53;7.85;;;5.47;;
25049;SDS011;13046;49.814;9.918;2023-09-07T11:03:19;8.50;;;5.25;;
25049;SDS011;13046;49.814;9.918;2023-09-07T11:05:45;7.28;;;5.57;;
25049;SDS011;13046;49.814;9.918;2023-09-07T11:08:12;5.78;;;5.22;;
25049;SDS011;13046;49.814;9.918;2023-09-07T11:10:38;5.40;;;4.90;;
25049;SDS011;13046;49.814;9.918;2023-09-07T11:13:04;6.00;;;5.43;;
25049;SDS011;13046;49.814;9.918;2023-09-07T11:15:31;5.43;;;4.93;;
25049;SDS011;13046;49.814;9.918;2023-09-07T11:17:58;5.30;;;4.80;;
25049;SDS011;13046;49.814;9.918;2023-09-07T11:20:24;5.68;;;5.18;;
25049;SDS011;13046;49.814;9.918;2023-09-07T11:22:51;5.53;;;4.90;;
25049;SDS011;13046;49.814;9.918;2023-09-07T11:25:17;6.15;;;5.63;;
25049;SDS011;13046;49.814;9.918;2023-09-07T11:27:43;6.43;;;5.93;;
25049;SDS011;13046;49.814;9.918;2023-09-07T11:30:10;6.13;;;5.60;;
25049;SDS011;13046;49.814;9.918;2023-09-07T11:32:36;5.32;;;4.85;;
25049;SDS011;13046;49.814;9.918;2023-09-07T11:35:03;5.55;;;5.05;;
25049;SDS011;13046;49.814;9.918;2023-09-07T11:37:32;5.90;;;5.18;;
25049;SDS011;13046;49.814;9.918;2023-09-07T11:39:59;5.75;;;5.25;;
25049;SDS011;13046;49.814;9.918;2023-09-07T11:42:25;7.68;;;4.63;;
25049;SDS011;13046;49.814;9.918;2023-09-07T11:44:51;5.70;;;5.20;;
25049;SDS011;13046;49.814;9.918;2023-09-07T11:47:17;5.50;;;4.88;;
25049;SDS011;13046;49.814;9.918;2023-09-07T11:49:44;6.80;;;5.47;;
25049;SDS011;13046;49.814;9.918;2023-09-07T11:52:10;7.25;;;5.22;;
25049;SDS011;13046;49.814;9.918;2023-09-07T11:54:36;5.68;;;5.05;;
25049;SDS011;13046;49.814;9.918;2023-09-07T11:57:02;5.82;;;5.32;;
25049;SDS011;13046;49.814;9.918;2023-09-07T11:59:28;5.95;;;5.43;;
25049;SDS011;13046;49.814;9.918;2023-09-07T12:01:54;5.22;;;4.72;;
25049;SDS011;13046;49.814;9.918;2023-09-07T12:04:20;11.55;;;5.90;;
25049;SDS011;13046;49.814;9.918;2023-09-07T12:06:46;5.07;;;4.68;;
25049;SDS011;13046;49.814;9.918;2023-09-07T12:09:12;7.93;;;5.43;;
25049;SDS011;13046;49.814;9.918;2023-09-07T12:11:39;9.02;;;5.18;;
25049;SDS011;13046;49.814;9.918;2023-09-07T12:14:07;5.82;;;5.32;;
25049;SDS011;13046;49.814;9.918;2023-09-07T12:16:33;5.70;;;5.20;;
25049;SDS011;13046;49.814;9.918;2023-09-07T12:18:59;7.13;;;4.93;;
25049;SDS011;13046;49.814;9.918;2023-09-07T12:21:25;5.70;;;5.13;;
25049;SDS011;13046;49.814;9.918;2023-09-07T12:23:51;7.47;;;4.80;;
25049;SDS011;13046;49.814;9.918;2023-09-07T12:26:17;5.47;;;4.93;;
25049;SDS011;13046;49.814;9.918;2023-09-07T12:28:45;5.00;;;4.65;;
25049;SDS011;13046;49.814;9.918;2023-09-07T12:31:11;5.57;;;4.40;;
25049;SDS011;13046;49.814;9.918;2023-09-07T12:33:39;4.78;;;4.38;;
25049;SDS011;13046;49.814;9.918;2023-09-07T12:36:05;7.03;;;4.50;;
25049;SDS011;13046;49.814;9.918;2023-09-07T12:38:34;8.25;;;5.30;;
25049;SDS011;13046;49.814;9.918;2023-09-07T12:41:00;6.72;;;5.10;;
25049;SDS011;13046;49.814;9.918;2023-09-07T12:43:26;5.70;;;4.70;;
25049;SDS011;13046;49.814;9.918;2023-09-07T12:45:52;7.22;;;4.47;;
25049;SDS011;13046;49.814;9.918;2023-09-07T12:48:19;5.07;;;4.68;;
25049;SDS011;13046;49.814;9.918;2023-09-07T12:50:45;5.53;;;5.03;;
25049;SDS011;13046;49.814;9.918;2023-09-07T12:53:11;5.25;;;4.75;;
25049;SDS011;13046;49.814;9.918;2023-09-07T12:55:37;7.55;;;4.22;;
25049;SDS011;13046;49.814;9.918;2023-09-07T12:58:03;5.25;;;4.85;;
25049;SDS011;13046;49.814;9.918;2023-09-07T16:10:02;4.63;;;4.22;;
25049;SDS011;13046;49.814;9.918;2023-09-07T16:12:28;5.28;;;4.10;;
25049;SDS011;13046;49.814;9.918;2023-09-07T16:14:54;10.23;;;4.32;;
25049;SDS011;13046;49.814;9.918;2023-09-07T16:17:20;6.90;;;4.72;;
25049;SDS011;13046;49.814;9.918;2023-09-07T16:19:47;7.07;;;5.03;;
25049;SDS011;13046;49.814;9.918;2023-09-07T16:22:14;5.00;;;3.78;;
25049;SDS011;13046;49.814;9.918;2023-09-07T16:24:40;6.07;;;5.47;;
25049;SDS011;13046;49.814;9.918;2023-09-07T16:27:06;5.22;;;4.38;;
25049;SDS011;13046;49.814;9.918;2023-09-07T16:29:32;9.02;;;4.40;;
25049;SDS011;13046;49.814;9.918;2023-09-07T16:31:58;5.22;;;4.32;;
25049;SDS011;13046;49.814;9.918;2023-09-07T16:34:24;8.13;;;6.47;;
25049;SDS011;13046;49.814;9.918;2023-09-07T16:36:52;4.93;;;4.53;;
25049;SDS011;13046;49.814;9.918;2023-09-07T16:39:18;4.75;;;3.92;;
25049;SDS011;13046;49.814;9.918;2023-09-07T16:41:44;5.20;;;4.03;;
25049;SDS011;13046;49.814;9.918;2023-09-07T16:44:11;7.43;;;5.03;;
25049;SDS011;13046;49.814;9.918;2023-09-07T16:46:37;4.80;;;4.40;;
25049;SDS011;13046;49.814;9.918;2023-09-07T16:49:04;8.55;;;4.68;;
25049;SDS011;13046;49.814;9.918;2023-09-07T16:51:30;6.93;;;4.95;;
25049;SDS011;13046;49.814;9.918;2023-09-07T16:53:56;4.65;;;4.25;;
25049;SDS011;13046;49.814;9.918;2023-09-07T16:56:22;9.23;;;5.18;;
25049;SDS011;13046;49.814;9.918;2023-09-07T16:58:48;5.88;;;5.28;;
25049;SDS011;13046;49.814;9.918;2023-09-07T17:01:15;7.50;;;4.85;;
25049;SDS011;13046;49.814;9.918;2023-09-07T17:03:41;4.72;;;4.28;;
25049;SDS011;13046;49.814;9.918;2023-09-07T17:06:07;6.47;;;4.82;;
25049;SDS011;13046;49.814;9.918;2023-09-07T17:08:33;5.55;;;5.07;;
25049;SDS011;13046;49.814;9.918;2023-09-07T17:10:59;6.15;;;4.85;;
25049;SDS011;13046;49.814;9.918;2023-09-07T17:13:25;5.25;;;4.55;;
25049;SDS011;13046;49.814;9.918;2023-09-07T17:15:52;8.80;;;5.00;;
25049;SDS011;13046;49.814;9.918;2023-09-07T17:18:21;5.55;;;4.93;;
25049;SDS011;13046;49.814;9.918;2023-09-07T17:20:47;6.72;;;4.70;;
25049;SDS011;13046;49.814;9.918;2023-09-07T17:23:13;5.95;;;5.43;;
25049;SDS011;13046;49.814;9.918;2023-09-07T17:25:39;6.53;;;4.93;;
25049;SDS011;13046;49.814;9.918;2023-09-07T17:28:06;6.70;;;5.35;;
25049;SDS011;13046;49.814;9.918;2023-09-07T17:30:35;6.65;;;4.78;;
25049;SDS011;13046;49.814;9.918;2023-09-07T17:33:02;5.30;;;4.78;;
25049;SDS011;13046;49.814;9.918;2023-09-07T17:35:28;6.60;;;4.88;;
25049;SDS011;13046;49.814;9.918;2023-09-07T17:37:55;5.78;;;4.15;;
25049;SDS011;13046;49.814;9.918;2023-09-07T17:40:21;7.60;;;5.25;;
25049;SDS011;13046;49.814;9.918;2023-09-07T17:42:47;6.25;;;5.53;;
25049;SDS011;13046;49.814;9.918;2023-09-07T17:45:13;8.15;;;5.25;;
25049;SDS011;13046;49.814;9.918;2023-09-07T17:47:39;6.10;;;5.50;;
25049;SDS011;13046;49.814;9.918;2023-09-07T17:50:06;6.97;;;6.32;;